Flight Track Log - Related Links

Times and Time Zones

All times are in EDT time to prevent confusion due to time zone crossing. See the N822NN flight status page for this flight to view local times or setup timezone preferences in your user account.

Time Position Orientation Groundspeed Altitude Reporting Facility
EDT Latitude Longitude Course Direction KTS MPH feet Rate Location/Type
Mon 04:49:32 PM 40.7667 -73.9493 85° East  Level FlightAware Approximate
Mon 04:51:16 PM 40.7779 -73.7901 320° Northwest 273 314 3,800  Level FlightAware ADS-B
Mon 04:51:39 PM 40.8005 -73.8154 307° West 280 322 5,100 3,310 Climbing FlightAware ADS-B
Mon 04:51:45 PM 40.8053 -73.8238 306° West 282 325 5,400 3,000 Climbing FlightAware ADS-B
Mon 04:52:01 PM 40.8178 -73.8469 306° West 283 326 6,200 2,813 Climbing FlightAware ADS-B
Mon 04:52:17 PM 40.8300 -73.8694 305° West 283 326 6,900 2,800 Climbing FlightAware ADS-B
Mon 04:52:31 PM 40.8412 -73.8902 298° West 298 343 7,600 2,870 Climbing FlightAware ADS-B
Mon 04:52:40 PM 40.8468 -73.9044 278° West 300 345 8,000 2,538 Climbing FlightAware ADS-B
Mon 04:52:57 PM 40.8502 -73.9363 271° West 303 349 8,700 2,625 Climbing FlightAware ADS-B
Mon 04:53:12 PM 40.8506 -73.9634 270° West 307 353 9,400 2,625 Climbing FlightAware ADS-B
Mon 04:53:13 PM 40.8506 -73.9652 270° West 307 353 9,400 3,000 Level FlightAware ADS-B
Mon 04:53:24 PM 40.8506 -73.9866 268° West 309 356 10,000 1,935 Climbing FlightAware ADS-B
Mon 04:53:44 PM 40.8498 -74.0257 266° West 332 382 10,400 1,043 Climbing FlightAware ADS-B
Mon 04:53:47 PM 40.8495 -74.0320 267° West 336 387 10,400 968 Level FlightAware ADS-B
Mon 04:54:15 PM 40.8469 -74.0931 267° West 370 426 10,900 1,100 Climbing FlightAware ADS-B
Mon 04:54:47 PM 40.8443 -74.1688 267° West 408 470 11,500 2,323 Climbing FlightAware ADS-B
Mon 04:55:17 PM 40.8417 -74.2446 267° West 407 468 13,300 3,246 Climbing FlightAware ADS-B
Mon 04:55:48 PM 40.8387 -74.3208 267° West 406 467 14,800 2,557 Climbing FlightAware ADS-B
Mon 04:56:18 PM 40.8357 -74.3965 267° West 415 478 15,900 1,967 Climbing FlightAware ADS-B
Mon 04:56:49 PM 40.8323 -74.4736 267° West 420 483 16,800 984 Climbing FlightAware ADS-B
Mon 04:57:19 PM 40.8289 -74.5520 267° West 425 489 16,900 97 Climbing FlightAware ADS-B
Mon 04:57:51 PM 40.8259 -74.6350 267° West 424 488 16,900  Level FlightAware ADS-B
Mon 04:58:22 PM 40.8223 -74.7141 266° West 421 484 16,900  Level FlightAware ADS-B
Mon 04:58:53 PM 40.8184 -74.7942 266° West 421 484 16,900 968 Level FlightAware ADS-B
Mon 04:59:24 PM 40.8146 -74.8723 266° West 424 488 17,900 2,262 Climbing FlightAware ADS-B
Mon 04:59:54 PM 40.8109 -74.9500 267° West 425 489 19,200 2,438 Climbing FlightAware ADS-B
Mon 05:00:28 PM 40.8068 -75.0391 266° West 429 494 20,500 2,066 Climbing FlightAware ADS-B
Mon 05:00:55 PM 40.8032 -75.1112 260° West 436 502 21,300 1,759 Climbing FlightAware ADS-B
Mon 05:01:26 PM 40.7929 -75.1922 259° West 441 507 22,200 2,361 Climbing FlightAware ADS-B
Mon 05:01:56 PM 40.7814 -75.2712 259° West 432 497 23,700 2,509 Climbing FlightAware ADS-B
Mon 05:02:21 PM 40.7722 -75.3347 255° West 431 496 24,500 1,814 Climbing FlightAware ADS-B
Mon 05:02:39 PM 40.7627 -75.3809 250° West 433 498 25,000 1,778 Climbing FlightAware ADS-B
Mon 05:02:48 PM 40.7571 -75.4014 247° West 434 499 25,300 1,667 Climbing FlightAware ADS-B
Mon 05:02:57 PM 40.7502 -75.4231 244° Southwest 434 499 25,500 1,500 Climbing FlightAware ADS-B
Mon 05:03:28 PM 40.7224 -75.4980 244° Southwest 438 504 26,300 1,645 Climbing FlightAware ADS-B
Mon 05:03:59 PM 40.6947 -75.5722 244° Southwest 439 505 27,200 1,645 Climbing FlightAware ADS-B
Mon 05:04:30 PM 40.6666 -75.6472 244° Southwest 433 498 28,000 774 Climbing FlightAware ADS-B
Mon 05:05:01 PM 40.6396 -75.7191 244° Southwest 428 493 28,000  Level FlightAware ADS-B
Mon 05:05:33 PM 40.6118 -75.7932 243° Southwest 428 493 28,000  Level FlightAware ADS-B
Mon 05:06:03 PM 40.5849 -75.8641 243° Southwest 429 494 28,000 689 Level FlightAware ADS-B
Mon 05:06:34 PM 40.5574 -75.9359 243° Southwest 431 496 28,700 1,355 Climbing FlightAware ADS-B
Mon 05:07:05 PM 40.5297 -76.0083 243° Southwest 434 499 29,400 1,313 Climbing FlightAware ADS-B
Mon 05:07:38 PM 40.5000 -76.0862 243° Southwest 436 502 30,100 1,219 Climbing FlightAware ADS-B
Mon 05:08:09 PM 40.4720 -76.1593 243° Southwest 440 506 30,700 1,147 Climbing FlightAware ADS-B
Mon 05:08:46 PM 40.4376 -76.2488 243° Southwest 443 510 31,400 1,147 Climbing FlightAware ADS-B
Mon 05:09:17 PM 40.4098 -76.3212 243° Southwest 444 511 32,000 1,015 Climbing FlightAware ADS-B
Mon 05:09:51 PM 40.3782 -76.4034 243° Southwest 450 518 32,500 923 Climbing FlightAware ADS-B
Mon 05:10:22 PM 40.3486 -76.4796 243° Southwest 454 522 33,000 1,161 Climbing FlightAware ADS-B
Mon 05:10:53 PM 40.3191 -76.5545 242° Southwest 452 520 33,700 1,238 Climbing FlightAware ADS-B
Mon 05:11:25 PM 40.2877 -76.6324 242° Southwest 451 519 34,300 1,065 Climbing FlightAware ADS-B
Mon 05:11:55 PM 40.2584 -76.7053 242° Southwest 452 520 34,800 987 Climbing FlightAware ADS-B
Mon 05:12:44 PM 40.2114 -76.8224 242° Southwest 452 520 35,600 867 Climbing FlightAware ADS-B
Mon 05:13:18 PM 40.1780 -76.9048 242° Southwest 451 519 36,000 375 Climbing FlightAware ADS-B
Mon 05:13:48 PM 40.1489 -76.9767 246° West 453 521 36,000  Level FlightAware ADS-B
Mon 05:13:55 PM 40.1426 -76.9949 252° West 454 522 36,000  Level FlightAware ADS-B
Mon 05:14:12 PM 40.1318 -77.0392 260° West 459 528 36,000  Level FlightAware ADS-B
Mon 05:14:24 PM 40.1273 -77.0723 268° West 461 531 36,000  Level FlightAware ADS-B
Mon 05:14:55 PM 40.1252 -77.1585 269° West 466 536 36,000  Level FlightAware ADS-B
Mon 05:15:27 PM 40.1240 -77.2477 269° West 468 539 36,000  Level FlightAware ADS-B
Mon 05:16:14 PM 40.1218 -77.3831 269° West 470 541 36,000  Level FlightAware ADS-B
Mon 05:16:52 PM 40.1202 -77.4884 269° West 470 541 36,000  Level FlightAware ADS-B
Mon 05:17:26 PM 40.1185 -77.5871 269° West 470 541 36,000  Level FlightAware ADS-B
Mon 05:18:09 PM 40.1165 -77.7080 269° West 470 541 36,000  Level FlightAware ADS-B
Mon 05:18:41 PM 40.1149 -77.7985 269° West 470 541 36,000  Level FlightAware ADS-B
Mon 05:19:16 PM 40.1129 -77.8965 268° West 468 539 36,000  Level FlightAware ADS-B
Mon 05:19:46 PM 40.1111 -77.9825 268° West 467 537 36,000  Level FlightAware ADS-B
Mon 05:20:27 PM 40.1087 -78.0970 268° West 464 534 36,000  Level FlightAware ADS-B
Mon 05:21:08 PM 40.1060 -78.2111 268° West 456 525 36,000  Level FlightAware ADS-B
Mon 05:22:17 PM 40.1014 -78.3978 267° West 455 524 36,000 57 Level FlightAware ADS-B
Mon 05:22:54 PM 40.0978 -78.4769 268° West 464 534 36,100 619 Climbing Cleveland Center
Mon 05:23:54 PM 40.0922 -78.6400 246° West 459 528 37,000 450 Climbing Cleveland Center
Mon 05:24:54 PM 40.0425 -78.7853 246° West 442 509 37,000  Level Cleveland Center
Mon 05:25:54 PM 39.9928 -78.9300 246° West 442 509 37,000 350 Level Cleveland Center
Mon 05:26:54 PM 39.9406 -79.0858 246° West 436 502 37,700 500 Climbing Cleveland Center
Mon 05:27:54 PM 39.8903 -79.2303 244° Southwest 441 507 38,000 150 Climbing Cleveland Center
Mon 05:28:54 PM 39.8356 -79.3772 246° West 446 513 38,000  Level Cleveland Center
Mon 05:29:54 PM 39.7869 -79.5214 244° Southwest 446 513 38,000  Level Cleveland Center
Mon 05:30:54 PM 39.7319 -79.6653 244° Southwest 446 513 38,000  Level Cleveland Center
Mon 05:31:54 PM 39.6789 -79.8089 248° West 446 513 38,000  Level Cleveland Center
Mon 05:32:54 PM 39.6319 -79.9578 256° West 446 513 38,000  Level Cleveland Center
Mon 05:37:11 PM 39.5078 -80.6128 246° West 459 528 38,000  Level Indianapolis Center
Mon 05:38:11 PM 39.4572 -80.7628 246° West 459 528 38,000  Level Indianapolis Center
Mon 05:39:11 PM 39.4064 -80.9100 245° Southwest 454 522 38,000  Level Indianapolis Center
Mon 05:40:11 PM 39.3553 -81.0542 246° West 454 522 38,000  Level Indianapolis Center
Mon 05:41:11 PM 39.3042 -81.2036 245° Southwest 454 522 38,000  Level Indianapolis Center
Mon 05:42:11 PM 39.2528 -81.3475 246° West 454 522 38,000  Level Indianapolis Center
Mon 05:43:11 PM 39.2031 -81.4936 246° West 448 516 38,000  Level Indianapolis Center
Mon 05:44:11 PM 39.1514 -81.6397 245° Southwest 448 516 38,000  Level Indianapolis Center
Mon 05:45:11 PM 39.0994 -81.7831 245° Southwest 448 516 38,000  Level Indianapolis Center
Mon 05:46:11 PM 39.0472 -81.9261 245° Southwest 448 516 38,000  Level Indianapolis Center
Mon 05:47:11 PM 38.9950 -82.0689 246° West 448 516 38,000  Level Indianapolis Center
Mon 05:48:11 PM 38.9444 -82.2114 245° Southwest 448 516 38,000  Level Indianapolis Center
Mon 05:49:11 PM 38.8919 -82.3536 244° Southwest 448 516 38,000  Level Indianapolis Center
Mon 05:50:13 PM 38.8389 -82.4933 245° Southwest 443 510 38,000  Level Indianapolis Center
Mon 05:51:23 PM 38.7758 -82.6647 246° West 443 510 38,000  Level Indianapolis Center
Mon 05:52:23 PM 38.7267 -82.8036 243° Southwest 443 510 38,000  Level Indianapolis Center
Mon 05:53:23 PM 38.6653 -82.9604 244° Southwest 434 499 38,000  Level FlightAware ADS-B
Mon 05:55:03 PM 38.5780 -83.1936 245° Southwest 435 501 38,000  Level FlightAware ADS-B
Mon 05:55:23 PM 38.5639 -83.2331 244° Southwest 443 510 38,000  Level Indianapolis Center
Mon 05:56:38 PM 38.4963 -83.4106 245° Southwest 436 502 38,000  Level FlightAware ADS-B
Mon 05:57:23 PM 38.4600 -83.5092 244° Southwest 443 510 38,000  Level Indianapolis Center
Mon 05:59:11 PM 38.3627 -83.7612 244° Southwest 433 498 38,000  Level FlightAware ADS-B
Mon 05:59:42 PM 38.3361 -83.8310 244° Southwest 433 498 38,000  Level FlightAware ADS-B
Mon 06:00:29 PM 38.2941 -83.9398 244° Southwest 434 499 38,000  Level FlightAware ADS-B
Mon 06:01:27 PM 38.2429 -84.0725 244° Southwest 436 502 38,000  Level FlightAware ADS-B
Mon 06:02:02 PM 38.2127 -84.1508 244° Southwest 436 502 38,000  Level FlightAware ADS-B
Mon 06:02:33 PM 38.1848 -84.2228 244° Southwest 435 501 38,000  Level FlightAware ADS-B
Mon 06:03:23 PM 38.1402 -84.3372 244° Southwest 433 498 38,000  Level FlightAware ADS-B
Mon 06:03:54 PM 38.1127 -84.4074 244° Southwest 431 496 38,000  Level FlightAware ADS-B
Mon 06:04:29 PM 38.0816 -84.4867 244° Southwest 431 496 38,000  Level FlightAware ADS-B
Mon 06:05:00 PM 38.0541 -84.5570 244° Southwest 431 496 38,000  Level FlightAware ADS-B
Mon 06:05:31 PM 38.0271 -84.6258 243° Southwest 430 495 38,000  Level FlightAware ADS-B
Mon 06:06:01 PM 38.0000 -84.6947 243° Southwest 431 496 38,000  Level FlightAware ADS-B
Mon 06:06:31 PM 37.9734 -84.7623 243° Southwest 431 496 38,000  Level FlightAware ADS-B
Mon 06:07:06 PM 37.9425 -84.8404 243° Southwest 430 495 38,000  Level FlightAware ADS-B
Mon 06:07:37 PM 37.9160 -84.9069 243° Southwest 428 493 38,000  Level FlightAware ADS-B
Mon 06:08:09 PM 37.8879 -84.9777 243° Southwest 428 493 38,000  Level FlightAware ADS-B
Mon 06:08:38 PM 37.8604 -85.0462 243° Southwest 426 490 38,000  Level FlightAware ADS-B
Mon 06:09:08 PM 37.8341 -85.1120 243° Southwest 425 489 38,000  Level FlightAware ADS-B
Mon 06:09:40 PM 37.8074 -85.1789 243° Southwest 424 488 38,000  Level FlightAware ADS-B
Mon 06:10:06 PM 37.7828 -85.2401 243° Southwest 423 487 38,000  Level FlightAware ADS-B
Mon 06:10:50 PM 37.7450 -85.3343 243° Southwest 424 488 38,000  Level FlightAware ADS-B
Mon 06:11:21 PM 37.7170 -85.4039 243° Southwest 423 487 38,000  Level FlightAware ADS-B
Mon 06:11:38 PM 37.7016 -85.4421 243° Southwest 423 487 38,000  Level FlightAware ADS-B
Mon 06:12:08 PM 37.6759 -85.5055 243° Southwest 423 487 38,000  Level FlightAware ADS-B
Mon 06:12:30 PM 37.6556 -85.5556 243° Southwest 423 487 38,000  Level FlightAware ADS-B
Mon 06:13:12 PM 37.6202 -85.6425 243° Southwest 424 488 38,000  Level FlightAware ADS-B
Mon 06:13:32 PM 37.5996 -85.6931 243° Southwest 423 487 38,000  Level FlightAware ADS-B
Mon 06:14:04 PM 37.5893 -85.7184 243° Southwest 423 487 38,000  Level FlightAware ADS-B
Mon 06:14:42 PM 37.5734 -85.7573 243° Southwest 424 488 38,000  Level FlightAware ADS-B
Mon 06:15:12 PM 37.5467 -85.8229 243° Southwest 426 490 38,000  Level FlightAware ADS-B
Mon 06:15:30 PM 37.5088 -85.9154 243° Southwest 427 491 38,000  Level FlightAware ADS-B
Mon 06:16:02 PM 37.4656 -86.0208 243° Southwest 422 486 38,000  Level FlightAware ADS-B
Mon 06:16:33 PM 37.4376 -86.0886 243° Southwest 423 487 38,000  Level FlightAware ADS-B
Mon 06:17:04 PM 37.4099 -86.1559 242° Southwest 421 484 38,000  Level FlightAware ADS-B
Mon 06:17:49 PM 37.3694 -86.2535 242° Southwest 418 481 38,000  Level FlightAware ADS-B
Mon 06:18:23 PM 37.3394 -86.3258 242° Southwest 419 482 38,000  Level FlightAware ADS-B
Mon 06:18:54 PM 37.3114 -86.3930 242° Southwest 421 484 38,000  Level FlightAware ADS-B
Mon 06:19:35 PM 37.2742 -86.4823 242° Southwest 422 486 38,000  Level FlightAware ADS-B
Mon 06:20:15 PM 37.2384 -86.5681 242° Southwest 423 487 38,000  Level FlightAware ADS-B
Mon 06:20:45 PM 37.2111 -86.6334 242° Southwest 423 487 38,000  Level FlightAware ADS-B
Mon 06:21:16 PM 37.1825 -86.7013 242° Southwest 422 486 38,000  Level FlightAware ADS-B
Mon 06:22:19 PM 37.1249 -86.8375 242° Southwest 424 488 38,000  Level FlightAware ADS-B
Mon 06:23:11 PM 37.0772 -86.9507 242° Southwest 425 489 38,000  Level FlightAware ADS-B
Mon 06:23:26 PM 37.0669 -86.9747 242° Southwest 425 489 38,000  Level Memphis Center
Mon 06:24:45 PM 36.9924 -87.1508 243° Southwest 425 489 38,000  Level FlightAware ADS-B
Mon 06:25:26 PM 36.9592 -87.2311 242° Southwest 425 489 38,000  Level Memphis Center
Mon 06:26:25 PM 36.9061 -87.3578 241° Southwest 425 489 38,000  Level Memphis Center
Mon 06:27:25 PM 36.8567 -87.4711 243° Southwest 420 483 38,000  Level Memphis Center
Mon 06:28:26 PM 36.8033 -87.6000 240° Southwest 426 490 38,000  Level Memphis Center
Mon 06:29:26 PM 36.7456 -87.7261 241° Southwest 426 490 38,000  Level Memphis Center
Mon 06:30:26 PM 36.6897 -87.8522 242° Southwest 421 484 38,000  Level Memphis Center
Mon 06:31:26 PM 36.6339 -87.9833 242° Southwest 426 490 38,000  Level Memphis Center
Mon 06:32:26 PM 36.5781 -88.1114 242° Southwest 426 490 38,000  Level Memphis Center
Mon 06:33:26 PM 36.5158 -88.2553 241° Southwest 426 490 38,000  Level Memphis Center
Mon 06:34:26 PM 36.4556 -88.3908 240° Southwest 439 505 38,000  Level Memphis Center
Mon 06:35:25 PM 36.3950 -88.5214 241° Southwest 439 505 38,000  Level Memphis Center
Mon 06:36:26 PM 36.3344 -88.6567 241° Southwest 444 511 38,000  Level Memphis Center
Mon 06:37:26 PM 36.2739 -88.7944 240° Southwest 444 511 38,000  Level Memphis Center
Mon 06:38:26 PM 36.2128 -88.9267 240° Southwest 444 511 38,000  Level Memphis Center
Mon 06:39:26 PM 36.1497 -89.0614 240° Southwest 444 511 38,000  Level Memphis Center
Mon 06:40:26 PM 36.0864 -89.1961 241° Southwest 449 517 38,000  Level Memphis Center
Mon 06:41:25 PM 36.0272 -89.3303 241° Southwest 449 517 38,000  Level Memphis Center
Mon 06:42:26 PM 35.9656 -89.4669 241° Southwest 449 517 38,000  Level Memphis Center
Mon 06:43:26 PM 35.9122 -89.5856 241° Southwest 449 517 38,000  Level Memphis Center
Mon 06:44:26 PM 35.8525 -89.7167 240° Southwest 449 517 38,000  Level Memphis Center
Mon 06:45:25 PM 35.7906 -89.8478 241° Southwest 449 517 38,000  Level Memphis Center
Mon 06:46:26 PM 35.7306 -89.9786 242° Southwest 449 517 38,000  Level Memphis Center
Mon 06:47:25 PM 35.6706 -90.1194 240° Southwest 437 503 38,000  Level Memphis Center
Mon 06:48:26 PM 35.6081 -90.2550 240° Southwest 442 509 38,000  Level Memphis Center
Mon 06:49:26 PM 35.5475 -90.3850 240° Southwest 442 509 38,000  Level Memphis Center
Mon 06:50:25 PM 35.4850 -90.5178 237° Southwest 442 509 38,000  Level Memphis Center
Mon 06:51:26 PM 35.4200 -90.6425 227° Southwest 442 509 38,000  Level Memphis Center
Mon 06:52:26 PM 35.3342 -90.7567 227° Southwest 456 525 38,000  Level Memphis Center
Mon 06:53:26 PM 35.2483 -90.8706 227° Southwest 456 525 38,000  Level Memphis Center
Mon 06:54:26 PM 35.1644 -90.9819 227° Southwest 456 525 38,000  Level Memphis Center
Mon 06:55:26 PM 35.0783 -91.0956 228° Southwest 456 525 38,000  Level Memphis Center
Mon 06:56:26 PM 35.0025 -91.1989 245° Southwest 456 525 38,000  Level Memphis Center
Mon 06:57:26 PM 34.9514 -91.3350 248° West 455 524 38,000 50 Level Memphis Center
Mon 06:58:26 PM 34.9022 -91.4839 250° West 448 516 38,100  Climbing Memphis Center
Mon 06:59:26 PM 34.8633 -91.6125 247° West 448 516 38,000 -50 Descending Memphis Center
Mon 07:00:26 PM 34.8117 -91.7633 248° West 448 516 38,000  Level Memphis Center
Mon 07:01:26 PM 34.7664 -91.9017 249° West 448 516 38,000  Level Memphis Center
Mon 07:02:26 PM 34.7272 -92.0247 248° West 448 516 38,000  Level Memphis Center
Mon 07:03:26 PM 34.6814 -92.1628 252° West 448 516 38,000  Level Memphis Center
Mon 07:04:26 PM 34.6439 -92.3008 253° West 448 516 38,000  Level Memphis Center
Mon 07:05:26 PM 34.6061 -92.4464 253° West 448 516 38,000  Level Memphis Center
Mon 07:06:26 PM 34.5703 -92.5867 252° West 442 509 38,000  Level Memphis Center
Mon 07:07:26 PM 34.5300 -92.7344 251° West 442 509 38,000  Level Memphis Center
Mon 07:08:26 PM 34.4917 -92.8719 253° West 442 509 38,000  Level Memphis Center
Mon 07:09:26 PM 34.4553 -93.0169 252° West 447 514 38,000  Level Memphis Center
Mon 07:10:26 PM 34.4147 -93.1642 252° West 447 514 38,000  Level Memphis Center
Mon 07:11:26 PM 34.3781 -93.2989 254° West 442 509 38,000  Level Memphis Center
Mon 07:11:57 PM 34.3572 -93.3886 252° West 441 507 38,000  Level Fort Worth Center
Mon 07:12:57 PM 34.3197 -93.5286 251° West 446 513 38,000  Level Fort Worth Center
Mon 07:13:57 PM 34.2822 -93.6636 252° West 441 507 38,000  Level Fort Worth Center
Mon 07:14:57 PM 34.2444 -93.8033 251° West 441 507 38,000  Level Fort Worth Center
Mon 07:15:57 PM 34.2067 -93.9381 251° West 434 499 38,000  Level Fort Worth Center
Mon 07:16:57 PM 34.1667 -94.0750 252° West 429 494 38,000  Level Fort Worth Center
Mon 07:17:57 PM 34.1306 -94.2119 250° West 429 494 38,000  Level Fort Worth Center
Mon 07:18:57 PM 34.0881 -94.3514 253° West 436 502 38,000  Level Fort Worth Center
Mon 07:19:57 PM 34.0539 -94.4881 250° West 436 502 38,000 -50 Level Fort Worth Center
Mon 07:20:57 PM 34.0092 -94.6322 248° West 443 510 37,900 -700 Descending Fort Worth Center
Mon 07:21:57 PM 33.9639 -94.7667 248° West 443 510 36,600 -1,550 Descending Fort Worth Center
Mon 07:22:57 PM 33.9167 -94.9056 248° West 448 516 34,800 -1,750 Descending Fort Worth Center
Mon 07:23:57 PM 33.8694 -95.0469 247° West 454 522 33,100 -1,700 Descending Fort Worth Center
Mon 07:24:57 PM 33.8197 -95.1883 247° West 462 532 31,400 -1,700 Descending Fort Worth Center
Mon 07:25:57 PM 33.7700 -95.3319 248° West 462 532 29,700 -1,550 Descending Fort Worth Center
Mon 07:26:57 PM 33.7203 -95.4781 249° West 467 537 28,300 -1,250 Descending Fort Worth Center
Mon 07:27:57 PM 33.6803 -95.6064 248° West 467 537 27,200 -1,250 Descending Fort Worth Center
Mon 07:28:57 PM 33.6303 -95.7519 247° West 467 537 25,800 -1,650 Descending Fort Worth Center
Mon 07:29:57 PM 33.5797 -95.8950 246° West 467 537 23,900 -1,900 Descending Fort Worth Center
Mon 07:30:57 PM 33.5253 -96.0431 251° West 455 524 22,000 -1,452 Descending Fort Worth Center
Mon 07:32:01 PM 33.4847 -96.1864 246° West 428 493 20,900 -1,748 Descending FAA TRACON SMA TRACON (SMA)
Mon 07:32:40 PM 33.4556 -96.2667 246° West 431 496 19,000 -2,810 Descending FAA TRACON SMA TRACON (SMA)
Mon 07:33:20 PM 33.4219 -96.3558 236° Southwest 424 488 17,200 -2,550 Descending FAA TRACON SMA TRACON (SMA)
Mon 07:34:00 PM 33.3775 -96.4356 224° Southwest 421 484 15,600 -2,400 Descending FAA TRACON SMA TRACON (SMA)
Mon 07:34:40 PM 33.3206 -96.5014 224° Southwest 410 472 14,000 -2,222 Descending FAA TRACON SMA TRACON (SMA)
Mon 07:35:21 PM 33.2714 -96.5586 224° Southwest 400 460 12,600 -2,175 Descending FAA TRACON SMA TRACON (SMA)
Mon 07:36:00 PM 33.2169 -96.6206 225° Southwest 389 448 11,100 -1,200 Descending FAA TRACON SMA TRACON (SMA)
Mon 07:36:41 PM 33.1644 -96.6822 224° Southwest 382 440 11,000 -74 Descending FAA TRACON SMA TRACON (SMA)
Mon 07:37:21 PM 33.1178 -96.7364 224° Southwest 379 436 11,000  Level FAA TRACON SMA TRACON (SMA)
Mon 07:38:00 PM 33.0656 -96.7967 224° Southwest 379 436 11,000  Level FAA TRACON SMA TRACON (SMA)
Mon 07:38:40 PM 33.0183 -96.8514 224° Southwest 334 384 11,000  Level FAA TRACON SMA TRACON (SMA)
Mon 07:39:20 PM 32.9822 -96.8931 186° South 291 335 11,000 -74 Level FAA TRACON SMA TRACON (SMA)
Mon 07:40:01 PM 32.9303 -96.8997 180° South 277 319 10,900 -805 Descending FAA TRACON SMA TRACON (SMA)
Mon 07:40:42 PM 32.8767 -96.8994 182° South 275 316 9,900 -1,357 Descending FAA TRACON SMA TRACON (SMA)
Mon 07:41:25 PM 32.8261 -96.9011 182° South 260 299 9,000 -1,500 Descending FAA TRACON SMA TRACON (SMA)
Mon 07:42:02 PM 32.7850 -96.9031 182° South 236 272 7,900 -1,714 Descending FAA TRACON SMA TRACON (SMA)
Mon 07:42:42 PM 32.7403 -96.9047 205° Southwest 233 268 6,800 -1,519 Descending FAA TRACON SMA TRACON (SMA)
Mon 07:43:21 PM 32.7078 -96.9231 287° West 224 258 5,900 -1,823 Descending FAA TRACON SMA TRACON (SMA)
Mon 07:44:01 PM 32.7183 -96.9636 328° Northwest 216 249 4,400 -1,926 Descending FAA TRACON SMA TRACON (SMA)
Mon 07:44:42 PM 32.7481 -96.9856 328° Northwest 206 237 3,300 -1,610 Descending FAA TRACON SMA TRACON (SMA)

Login

Don't have an account? Register now (free) for customized features, flight alerts, and more!